ADDS METAR Data INFO
IDs: Format: Raw Decoded Include TAF

Data at: 0515 UTC 21 Feb 2018

KMYF 201453Z 00000KT 10SM CLR 03/M02 A3012 RMK AO2 SLP199 T00331017 53020
KMYF 201353Z 00000KT 10SM CLR 04/M01 A3009 RMK AO2 SLP191 T00441011
KMYF 201253Z AUTO 13003KT 10SM CLR 05/00 A3007 RMK AO2 SLP183 T00500000
KMYF 201153Z AUTO 00000KT 10SM CLR 04/M03 A3006 RMK AO2 SLP177 T00391028 10100 20028 58003
KMYF 201053Z AUTO 00000KT 10SM CLR 04/M04 A3006 RMK AO2 SLP178 T00441039
KMYF 200953Z AUTO 03003KT 10SM CLR 05/M05 A3006 RMK AO2 SLP180 T00501050
KMYF 200853Z AUTO 34004KT 10SM CLR 07/M07 A3006 RMK AO2 SLP180 T00721072 51023
KMYF 200753Z AUTO 34004KT 10SM CLR 08/M06 A3005 RMK AO2 SLP174 T00831056 401500083
KMYF 200653Z AUTO 35005KT 10SM CLR 09/M03 A3003 RMK AO2 SLP167 T00941028
KMYF 200553Z AUTO 25003KT 10SM SCT075 09/02 A3000 RMK AO2 PK WND 32027/0503 RAB04E22 SLP156 P0000 60000 T00940022 10133 20094 53013
KMYF 200453Z 32008KT 10SM FEW043 BKN080 11/01 A2998 RMK AO2 SLP151 T01060006
KMYF 200353Z 28010KT 10SM SCT043 11/01 A2996 RMK AO2 SLP145 T01110011
KMYF 200253Z 28015G20KT 10SM SCT046 11/M01 A2996 RMK AO2 SLP143 T01111006 53005
KMYF 200153Z COR 28014G21KT 10SM SCT042 11/00 A2995 RMK AO2 SLP140 T01110000
KMYF 200053Z COR 27015G20KT 10SM SCT042 13/01 A2994 RMK AO2 SLP137 T01280011
KMYF 192353Z AUTO 28016G22KT 10SM FEW044 13/01 A2994 RMK AO2 PK WND 26027/2321 SLP138 T01330011 10150 20128 56001
KMYF 192253Z AUTO 27016G23KT 10SM FEW046 14/M01 A2994 RMK AO2 PK WND 28027/2235 SLP138 T01441006
KMYF 192153Z 28015G25KT 10SM FEW055 14/M03 A2994 RMK AO2 SLP138 T01441033
KMYF 192053Z 28016G24KT 10SM SCT048 14/00 A2995 RMK AO2 SLP139 T01390000 58005
KMYF 191953Z 30011G22KT 10SM SCT040 14/M01 A2996 RMK AO2 PK WND 29027/1918 SLP141 T01441011
KMYF 191853Z 29018KT 10SM FEW049 FEW065 14/M01 A2997 RMK AO2 PK WND 31028/1843 SLP146 T01441006
KMYF 191753Z 28017G24KT 10SM FEW050 14/00 A2996 RMK AO2 PK WND 30026/1725 SLP143 T01390000 10144 20117 51019